Dumas, AR (71639)

1:38 AM CDT on July 29, 2016 (GMT -0500)
McGehee-Wolfe Dr | | Change Station

Elev 171 ft 33.64 °N, 91.40 °W | Updated 13 minutes ago

Scattered Clouds
Scattered Clouds
74.5 °F
Feels Like 72 °F
N
2.7
Wind Variable Wind from SW

Today
High -- | Low -- °F
--% Chance of Precip.
Yesterday
High -- | Low -- °F
Precip. -- in
Pressure 29.99 in
Visibility 10.0 miles
Clouds Scattered Clouds 600 ft
Heat Index 72 °F
Dew Point 74 °F
Humidity 97%
Rainfall 0.00 in
Snow Depth Not available.
6:15 AM 8:08 PM
Waning Crescent, 25% visible
SPECI KLLQ 290632Z AUTO 22004KT 10SM SCT006 24/22 A2999 RMK AO2 T02390222
Pressure 29.99 in
Visibility 10.0 miles
Clouds Scattered Clouds 600 ft
Heat Index 72 °F
Dew Point 74 °F
Humidity 97%
Rainfall 0.00 in
Snow Depth Not available.
6:15 AM 8:08 PM
Waning Crescent, 25% visible
SPECI KLLQ 290632Z AUTO 22004KT 10SM SCT006 24/22 A2999 RMK AO2 T02390222

10-Day Weather Forecast

Almanac

Astronomy

Jul. 29, 2016 Rise Set
Actual Time
Civil Twilight
Nautical Twilight
Astronomical Twilight
Moon
Length of Visible Light
Length of Day
Tomorrow will be .
, % of the Moon is Illuminated

Today's Extremes

State Highs State Lows

Community

WunderPhotos

Upload Photos

1,928,299 photos uploaded!

WunderBlog® & News

Nearby

Air Quality

  Air Quality AQ Index Pollutant
Not available.

Snow Depth

Station Depth Elevation

Earthquake Activity

City Distance Mag. Time & Date
Minimum magnitude displayed is 2.5.

Coastal Water Temperatures

Place Temperature

Stations

Nearby Weather Stations

Station Location Temp. Windchill Dew Point Humidity Wind Precip. Elev Updated Type
                   

Watches & Warnings

There are currently no watches in effect.